createdAt,value
2023-04-04T00:02:01.054Z,8.30
2023-04-04T00:04:57.636Z,8.30
2023-04-04T00:07:55.947Z,8.20
2023-04-04T00:13:42.653Z,8.10
2023-04-04T00:16:29.594Z,7.90
2023-04-04T00:19:23.355Z,7.70
2023-04-04T00:22:13.457Z,7.70
2023-04-04T00:25:00.699Z,7.70
2023-04-04T00:27:50.351Z,7.70
2023-04-04T00:30:37.638Z,7.60
2023-04-04T00:33:27.461Z,7.40
2023-04-04T00:36:31.694Z,9.10
2023-04-04T00:39:32.701Z,7.60
2023-04-04T00:42:22.148Z,8.20
2023-04-04T00:45:09.683Z,7.10
2023-04-04T00:47:57.168Z,7.70
2023-04-04T00:50:46.563Z,7.70
2023-04-04T00:53:35.666Z,7.80
2023-04-04T00:56:23.584Z,8.10
2023-04-04T00:59:10.343Z,8.40
2023-04-04T01:02:06.599Z,8.20
2023-04-04T01:04:53.354Z,8.20
2023-04-04T01:07:40.728Z,6.90
2023-04-04T01:10:27.865Z,8.00
2023-04-04T01:13:15.059Z,7.80
2023-04-04T01:16:07.576Z,7.90
2023-04-04T01:18:59.720Z,7.80
2023-04-04T01:21:47.978Z,7.80
2023-04-04T01:24:36.292Z,7.70
2023-04-04T01:27:23.939Z,7.70
2023-04-04T01:30:29.813Z,7.60
2023-04-04T01:33:28.404Z,7.80
2023-04-04T01:37:07.534Z,8.00
2023-04-04T01:40:19.028Z,6.80
2023-04-04T01:43:08.826Z,8.10
2023-04-04T01:45:58.632Z,8.20
2023-04-04T01:48:47.013Z,8.10
2023-04-04T01:51:39.041Z,8.00
2023-04-04T01:54:26.296Z,7.90
2023-04-04T01:57:13.277Z,7.90
2023-04-04T01:59:59.342Z,7.90
2023-04-04T02:02:45.789Z,8.20
2023-04-04T02:05:32.290Z,8.00
2023-04-04T02:08:18.603Z,7.80
2023-04-04T02:11:10.624Z,7.80
2023-04-04T02:13:57.420Z,7.90
2023-04-04T02:16:46.215Z,7.80
2023-04-04T02:19:32.257Z,7.90
2023-04-04T02:22:18.437Z,7.80
2023-04-04T02:25:05.462Z,7.70
2023-04-04T02:27:51.563Z,7.50
2023-04-04T02:30:37.405Z,7.70
2023-04-04T02:33:23.716Z,7.40
2023-04-04T02:36:10.324Z,7.40
2023-04-04T02:38:57.873Z,7.40
2023-04-04T02:41:46.088Z,7.40
2023-04-04T02:44:32.191Z,7.50
2023-04-04T02:47:19.139Z,7.40
2023-04-04T02:50:05.703Z,7.40
2023-04-04T02:52:51.978Z,7.10
2023-04-04T02:55:38.429Z,7.10
2023-04-04T02:58:24.645Z,7.10
2023-04-04T03:01:10.760Z,7.20
2023-04-04T03:03:57.961Z,7.40
2023-04-04T03:06:44.366Z,7.60
2023-04-04T03:09:31.393Z,7.40
2023-04-04T03:12:21.528Z,7.10
2023-04-04T03:15:09.210Z,7.20
2023-04-04T03:17:55.276Z,7.10
2023-04-04T03:20:44.244Z,7.20
2023-04-04T03:23:31.498Z,7.00
2023-04-04T03:26:17.643Z,7.00
2023-04-04T03:29:04.494Z,7.20
2023-04-04T03:31:50.457Z,7.20
2023-04-04T03:34:36.354Z,7.20
2023-04-04T03:37:23.058Z,7.10
2023-04-04T03:40:10.645Z,7.00
2023-04-04T03:42:58.911Z,7.10
2023-04-04T03:45:45.244Z,7.20
2023-04-04T03:48:32.499Z,7.20
2023-04-04T03:51:30.528Z,7.30
2023-04-04T03:54:17.654Z,7.40
2023-04-04T03:57:04.098Z,7.30
2023-04-04T03:59:50.000Z,7.20
2023-04-04T04:02:37.791Z,7.30
2023-04-04T04:05:24.876Z,7.50
2023-04-04T04:08:13.307Z,7.40
2023-04-04T04:11:05.401Z,7.50
2023-04-04T04:13:51.985Z,7.60
2023-04-04T04:16:40.784Z,7.50
2023-04-04T04:19:28.227Z,7.40
2023-04-04T04:22:14.427Z,7.40
2023-04-04T04:25:00.995Z,7.50
2023-04-04T04:27:49.051Z,7.60
2023-04-04T04:30:38.942Z,7.50
2023-04-04T04:33:31.826Z,7.60
2023-04-04T04:36:21.861Z,7.70
2023-04-04T04:39:16.483Z,7.40
2023-04-04T04:42:15.500Z,7.20
2023-04-04T04:45:09.243Z,7.30
2023-04-04T04:47:58.990Z,7.40
2023-04-04T04:50:47.405Z,7.40
2023-04-04T04:53:37.261Z,7.60
2023-04-04T04:56:24.009Z,7.30
2023-04-04T04:59:12.952Z,7.40
2023-04-04T05:02:26.694Z,7.30
2023-04-04T05:05:14.138Z,7.50
2023-04-04T05:08:04.890Z,7.30
2023-04-04T05:10:55.234Z,7.30
2023-04-04T05:13:46.466Z,7.20
2023-04-04T05:16:33.651Z,6.90
2023-04-04T05:19:22.215Z,7.10
2023-04-04T05:22:12.269Z,6.30
2023-04-04T05:25:25.967Z,7.10
2023-04-04T05:28:12.036Z,7.60
2023-04-04T05:30:58.640Z,7.40
2023-04-04T05:33:47.712Z,7.40
2023-04-04T05:36:47.982Z,7.40
2023-04-04T05:39:34.101Z,7.20
2023-04-04T05:42:25.041Z,7.20
2023-04-04T05:45:15.809Z,5.90
2023-04-04T05:48:05.038Z,7.40
2023-04-04T05:54:10.629Z,7.00
2023-04-04T06:00:20.861Z,7.10
2023-04-04T06:09:20.961Z,6.20
2023-04-04T06:12:10.162Z,7.60
2023-04-04T06:15:01.071Z,7.60
2023-04-04T06:17:50.232Z,7.90
2023-04-04T06:20:44.838Z,7.80
2023-04-04T06:23:34.199Z,7.80
2023-04-04T06:26:20.887Z,6.60
2023-04-04T06:29:08.042Z,7.80
2023-04-04T06:31:58.488Z,9.00
2023-04-04T06:34:54.429Z,8.10
2023-04-04T06:37:58.146Z,7.00
2023-04-04T06:40:47.244Z,8.20
2023-04-04T06:43:34.028Z,8.10
2023-04-04T06:46:27.118Z,8.10
2023-04-04T06:49:16.195Z,8.30
2023-04-04T06:52:03.658Z,8.40
2023-04-04T06:54:51.415Z,8.70
2023-04-04T06:57:39.434Z,8.50
2023-04-04T07:00:35.324Z,8.50
2023-04-04T07:06:29.599Z,8.30
2023-04-04T07:09:27.982Z,8.80
2023-04-04T07:12:17.209Z,8.60
2023-04-04T07:15:45.532Z,8.80
2023-04-04T07:21:35.431Z,9.10
2023-04-04T07:24:23.536Z,9.20
2023-04-04T07:27:10.345Z,9.10
2023-04-04T07:29:56.306Z,8.60
2023-04-04T07:32:46.849Z,8.80
2023-04-04T07:35:33.151Z,9.10
2023-04-04T07:38:24.018Z,9.10
2023-04-04T07:41:12.683Z,9.40
2023-04-04T07:44:03.498Z,9.70
2023-04-04T07:47:02.310Z,10.00
2023-04-04T07:49:53.206Z,10.10
2023-04-04T07:52:39.461Z,10.10
2023-04-04T07:55:26.209Z,10.30
2023-04-04T07:58:11.742Z,10.50
2023-04-04T08:00:57.727Z,10.40
2023-04-04T08:03:44.823Z,10.30
2023-04-04T08:06:32.348Z,10.80
2023-04-04T08:09:19.504Z,11.40
2023-04-04T08:12:08.675Z,10.50
2023-04-04T08:14:54.938Z,12.80
2023-04-04T08:17:43.713Z,11.50
2023-04-04T08:20:31.581Z,12.60
2023-04-04T08:23:17.685Z,12.50
2023-04-04T08:26:05.339Z,12.10
2023-04-04T08:28:52.077Z,13.20
2023-04-04T08:31:40.573Z,12.20
2023-04-04T08:34:28.938Z,12.80
2023-04-04T08:37:15.418Z,12.00
2023-04-04T08:40:01.974Z,12.00
2023-04-04T08:42:51.553Z,13.10
2023-04-04T08:45:42.322Z,13.30
2023-04-04T08:48:30.369Z,14.10
2023-04-04T08:51:17.944Z,14.10
2023-04-04T08:54:04.625Z,14.10
2023-04-04T08:56:52.845Z,13.10
2023-04-04T08:59:40.668Z,13.10
2023-04-04T09:03:05.489Z,12.10
2023-04-04T09:05:56.085Z,12.40
2023-04-04T09:08:43.485Z,13.40
2023-04-04T09:11:32.420Z,13.90
2023-04-04T09:14:21.332Z,13.50
2023-04-04T09:17:08.759Z,14.30
2023-04-04T09:19:54.916Z,15.80
2023-04-04T09:22:48.762Z,15.80
2023-04-04T09:25:37.119Z,14.20
2023-04-04T09:28:24.099Z,14.00
2023-04-04T09:31:13.203Z,13.00
2023-04-04T09:34:02.856Z,14.00
2023-04-04T09:36:52.464Z,14.40
2023-04-04T09:39:40.481Z,14.40
2023-04-04T09:42:27.508Z,14.30
2023-04-04T09:45:22.416Z,13.30
2023-04-04T09:48:33.658Z,13.40
2023-04-04T09:51:19.167Z,13.90
2023-04-04T09:54:10.869Z,14.50
2023-04-04T09:56:59.202Z,14.20
2023-04-04T09:59:47.302Z,15.30
2023-04-04T10:02:34.313Z,14.90
2023-04-04T10:05:21.868Z,16.20
2023-04-04T10:08:36.362Z,16.00
2023-04-04T10:11:33.993Z,15.40
2023-04-04T10:14:35.172Z,18.70
2023-04-04T10:17:22.749Z,15.00
2023-04-04T10:20:10.172Z,14.50
2023-04-04T10:22:58.830Z,15.30
2023-04-04T10:25:46.526Z,14.50
2023-04-04T10:28:32.882Z,13.30
2023-04-04T10:31:28.741Z,13.80
2023-04-04T10:34:25.881Z,14.30
2023-04-04T10:37:27.621Z,15.80
2023-04-04T10:40:19.803Z,15.70
2023-04-04T10:43:07.715Z,15.50
2023-04-04T10:45:54.655Z,14.90
2023-04-04T10:48:43.946Z,15.10
2023-04-04T10:51:35.333Z,16.80
2023-04-04T10:54:28.180Z,16.40
2023-04-04T10:57:15.484Z,15.50
2023-04-04T11:00:11.058Z,14.30
2023-04-04T11:03:00.404Z,14.10
2023-04-04T11:05:49.606Z,14.40
2023-04-04T11:08:40.339Z,16.30
2023-04-04T11:11:27.071Z,15.70
2023-04-04T11:14:14.024Z,15.70
2023-04-04T11:17:00.891Z,15.60
2023-04-04T11:20:00.784Z,16.40
2023-04-04T11:23:05.377Z,16.80
2023-04-04T11:26:01.608Z,14.60
2023-04-04T11:28:48.830Z,15.10
2023-04-04T11:31:45.825Z,16.30
2023-04-04T11:34:33.270Z,16.50
2023-04-04T11:37:20.089Z,15.40
2023-04-04T11:40:14.288Z,14.80
2023-04-04T11:43:03.726Z,14.70
2023-04-04T11:45:50.995Z,14.20
2023-04-04T11:48:39.758Z,14.20
2023-04-04T11:51:26.468Z,15.30
2023-04-04T11:54:28.693Z,16.50
2023-04-04T11:57:16.908Z,15.50
2023-04-04T12:00:06.811Z,16.00
2023-04-04T12:02:57.358Z,18.80
2023-04-04T12:05:44.880Z,16.70
2023-04-04T12:08:34.359Z,15.90
2023-04-04T12:11:22.325Z,17.10
2023-04-04T12:14:24.282Z,17.60
2023-04-04T12:17:10.975Z,18.50
2023-04-04T12:19:57.510Z,16.70
2023-04-04T12:22:49.091Z,17.60
2023-04-04T12:25:40.643Z,18.30
2023-04-04T12:28:28.410Z,18.40
2023-04-04T12:31:16.524Z,18.90
2023-04-04T12:34:03.921Z,17.50
2023-04-04T12:36:59.360Z,16.50
2023-04-04T12:39:49.879Z,15.20
2023-04-04T12:42:37.543Z,13.90
2023-04-04T12:45:28.489Z,13.50
2023-04-04T12:48:18.253Z,14.50
2023-04-04T12:51:06.431Z,14.60
2023-04-04T12:53:58.444Z,14.20
2023-04-04T12:56:50.075Z,13.40
2023-04-04T12:59:38.111Z,13.10
2023-04-04T13:02:25.755Z,13.50
2023-04-04T13:05:33.356Z,13.10
2023-04-04T13:08:20.243Z,13.00
2023-04-04T13:11:06.898Z,13.10
2023-04-04T13:14:03.756Z,12.80
2023-04-04T13:17:06.061Z,12.70
2023-04-04T13:19:53.109Z,12.90
2023-04-04T13:22:43.797Z,12.90
2023-04-04T13:25:30.077Z,12.90
2023-04-04T13:28:16.566Z,13.40
2023-04-04T13:31:07.504Z,13.60
2023-04-04T13:33:53.721Z,13.40
2023-04-04T13:36:40.900Z,13.40
2023-04-04T13:39:28.756Z,13.10
2023-04-04T13:42:14.912Z,12.80
2023-04-04T13:45:01.259Z,13.00
2023-04-04T13:47:47.616Z,12.40
2023-04-04T13:55:22.097Z,13.30
2023-04-04T13:58:08.222Z,12.60
2023-04-04T14:00:54.529Z,12.60
2023-04-04T14:03:43.274Z,12.80
2023-04-04T14:06:31.993Z,12.80
2023-04-04T14:09:21.552Z,12.60
2023-04-04T14:12:07.838Z,12.90
2023-04-04T14:14:53.711Z,13.10
2023-04-04T14:17:43.595Z,12.70
2023-04-04T14:20:30.269Z,12.50
2023-04-04T14:23:17.192Z,12.50
2023-04-04T14:26:04.406Z,12.60
2023-04-04T14:28:50.120Z,12.50
2023-04-04T14:31:36.387Z,12.70
2023-04-04T14:34:22.650Z,13.00
2023-04-04T14:37:08.596Z,11.60
2023-04-04T14:39:54.287Z,12.40
2023-04-04T14:42:41.239Z,12.60
2023-04-04T14:45:32.476Z,12.70
2023-04-04T14:48:19.482Z,12.40
2023-04-04T14:51:08.818Z,12.00
2023-04-04T14:53:55.008Z,12.40
2023-04-04T14:56:42.851Z,12.70
2023-04-04T14:59:29.903Z,12.30
2023-04-04T15:02:22.129Z,12.30
2023-04-04T15:05:09.810Z,12.50
2023-04-04T15:07:56.501Z,12.30
2023-04-04T15:10:43.088Z,12.30
2023-04-04T15:13:34.620Z,12.30
2023-04-04T15:16:21.964Z,12.20
2023-04-04T15:19:11.874Z,12.30
2023-04-04T15:21:59.524Z,12.40
2023-04-04T15:24:45.812Z,12.70
2023-04-04T15:27:32.041Z,13.10
2023-04-04T15:30:23.577Z,13.10
2023-04-04T15:33:10.128Z,12.60
2023-04-04T15:35:56.678Z,12.80
2023-04-04T15:38:42.446Z,12.30
2023-04-04T15:41:31.961Z,12.10
2023-04-04T15:44:18.233Z,12.30
2023-04-04T15:47:08.657Z,12.30
2023-04-04T15:49:54.493Z,12.20
2023-04-04T15:52:40.748Z,12.30
2023-04-04T15:55:47.517Z,12.20
2023-04-04T15:58:39.698Z,12.20
2023-04-04T16:01:29.348Z,12.60
2023-04-04T16:04:15.639Z,12.30
2023-04-04T16:07:03.818Z,12.20
2023-04-04T16:09:54.181Z,12.30
2023-04-04T16:13:14.184Z,12.40
2023-04-04T16:16:04.843Z,12.40
2023-04-04T16:18:51.118Z,12.30
2023-04-04T16:21:38.101Z,12.10
2023-04-04T16:24:24.054Z,12.10
2023-04-04T16:27:17.329Z,11.00
2023-04-04T16:30:06.323Z,12.60
2023-04-04T16:33:03.086Z,12.70
2023-04-04T16:35:49.753Z,12.80
2023-04-04T16:38:36.105Z,12.60
2023-04-04T16:41:22.497Z,12.20
2023-04-04T16:44:10.353Z,12.50
2023-04-04T16:46:59.335Z,12.60
2023-04-04T16:49:47.211Z,12.50
2023-04-04T16:52:49.770Z,11.80
2023-04-04T16:55:36.633Z,12.00
2023-04-04T16:58:22.976Z,11.90
2023-04-04T17:01:20.697Z,11.70
2023-04-04T17:04:06.596Z,11.70
2023-04-04T17:06:52.978Z,11.70
2023-04-04T17:09:40.263Z,11.60
2023-04-04T17:12:27.418Z,11.70
2023-04-04T17:15:14.546Z,12.00
2023-04-04T17:18:02.307Z,12.20
2023-04-04T17:20:52.166Z,12.20
2023-04-04T17:23:38.473Z,11.70
2023-04-04T17:29:46.976Z,12.20
2023-04-04T17:32:34.163Z,12.40
2023-04-04T17:35:20.274Z,12.20
2023-04-04T17:38:08.142Z,12.10
2023-04-04T17:40:54.813Z,12.10
2023-04-04T17:43:41.298Z,12.10
2023-04-04T17:46:28.204Z,12.10
2023-04-04T17:49:20.459Z,12.00
2023-04-04T17:52:11.515Z,10.30
2023-04-04T17:54:58.177Z,11.90
2023-04-04T17:57:45.109Z,12.00
2023-04-04T18:00:39.717Z,12.00
2023-04-04T18:03:39.442Z,12.20
2023-04-04T18:06:38.910Z,12.00
2023-04-04T18:09:32.096Z,11.90
2023-04-04T18:12:29.574Z,11.90
2023-04-04T18:15:22.409Z,10.60
2023-04-04T18:18:13.064Z,11.70
2023-04-04T18:21:03.152Z,11.20
2023-04-04T18:23:50.933Z,11.30
2023-04-04T18:26:48.915Z,11.20
2023-04-04T18:29:36.114Z,9.10
2023-04-04T18:32:40.112Z,11.20
2023-04-04T18:35:26.663Z,11.00
2023-04-04T18:38:14.080Z,10.90
2023-04-04T18:41:06.118Z,10.70
2023-04-04T18:43:52.868Z,10.70
2023-04-04T18:46:43.262Z,10.40
2023-04-04T18:49:29.812Z,10.40
2023-04-04T18:52:16.114Z,10.30
2023-04-04T18:55:02.839Z,10.40
2023-04-04T18:57:57.256Z,10.60
2023-04-04T19:07:51.926Z,11.70
2023-04-04T19:10:39.282Z,10.50
2023-04-04T19:13:28.412Z,10.50
2023-04-04T19:17:24.974Z,8.40
2023-04-04T19:20:12.290Z,9.10
2023-04-04T19:22:58.457Z,10.10
2023-04-04T19:25:44.408Z,10.20
2023-04-04T19:28:30.473Z,10.20
2023-04-04T19:31:22.394Z,10.10
2023-04-04T19:34:09.806Z,10.00
2023-04-04T19:36:56.069Z,9.60
2023-04-04T19:39:44.039Z,9.50
2023-04-04T19:42:30.670Z,9.40
2023-04-04T19:45:25.954Z,9.40
2023-04-04T19:48:50.664Z,9.50
2023-04-04T19:51:39.485Z,9.70
2023-04-04T19:54:32.391Z,9.50
2023-04-04T19:57:20.891Z,9.60
2023-04-04T20:00:13.975Z,9.80
2023-04-04T20:03:07.209Z,9.50
2023-04-04T20:05:54.141Z,9.40
2023-04-04T20:08:47.881Z,9.60
2023-04-04T20:11:35.846Z,9.50
2023-04-04T20:14:23.690Z,9.40
2023-04-04T20:17:09.912Z,9.40
2023-04-04T20:19:55.979Z,9.30
2023-04-04T20:22:41.684Z,9.20
2023-04-04T20:25:42.157Z,9.20
2023-04-04T20:28:28.854Z,9.10
2023-04-04T20:31:18.212Z,9.50
2023-04-04T20:34:07.744Z,9.30
2023-04-04T20:36:53.872Z,9.40
2023-04-04T20:39:56.202Z,9.50
2023-04-04T20:42:42.109Z,9.40
2023-04-04T20:45:50.470Z,9.20
2023-04-04T20:48:39.682Z,9.10
2023-04-04T20:51:33.065Z,9.20
2023-04-04T20:54:19.098Z,9.20
2023-04-04T20:57:05.196Z,9.30
2023-04-04T20:59:51.288Z,9.00
2023-04-04T21:02:37.228Z,9.10
2023-04-04T21:05:31.421Z,9.20
2023-04-04T21:08:22.714Z,9.20
2023-04-04T21:11:10.791Z,9.20
2023-04-04T21:13:58.427Z,9.60
2023-04-04T21:16:44.530Z,9.90
2023-04-04T21:19:31.397Z,9.90
2023-04-04T21:22:18.447Z,9.60
2023-04-04T21:25:40.085Z,9.30
2023-04-04T21:28:39.213Z,9.30
2023-04-04T21:31:28.971Z,9.40
2023-04-04T21:34:20.740Z,9.30
2023-04-04T21:37:07.479Z,9.30
2023-04-04T21:39:57.668Z,9.20
2023-04-04T21:42:43.754Z,9.30
2023-04-04T21:45:29.752Z,9.80
2023-04-04T21:48:15.909Z,10.00
2023-04-04T21:51:02.257Z,9.50
2023-04-04T21:53:49.702Z,9.30
2023-04-04T21:56:35.671Z,9.30
2023-04-04T21:59:21.853Z,9.00
2023-04-04T22:02:09.680Z,8.80
2023-04-04T22:04:57.661Z,8.50
2023-04-04T22:07:43.670Z,8.40
2023-04-04T22:10:45.586Z,8.50
2023-04-04T22:13:33.088Z,8.30
2023-04-04T22:16:20.567Z,8.20
2023-04-04T22:19:08.718Z,8.10
2023-04-04T22:21:56.040Z,8.30
2023-04-04T22:24:42.059Z,8.30
2023-04-04T22:27:28.702Z,8.60
2023-04-04T22:30:14.747Z,8.70
2023-04-04T22:33:02.617Z,8.60
2023-04-04T22:35:48.825Z,8.60
2023-04-04T22:38:34.939Z,8.60
2023-04-04T22:41:21.462Z,8.50
2023-04-04T22:44:07.924Z,8.20
2023-04-04T22:46:54.968Z,8.10
2023-04-04T22:49:48.442Z,8.20
2023-04-04T22:52:34.775Z,8.60
2023-04-04T22:55:23.822Z,8.80
2023-04-04T22:58:09.736Z,9.00
2023-04-04T23:00:55.720Z,8.00
2023-04-04T23:03:41.756Z,8.90
2023-04-04T23:06:27.596Z,9.00
2023-04-04T23:09:13.290Z,8.90
2023-04-04T23:11:59.534Z,8.70
2023-04-04T23:14:47.379Z,8.30
2023-04-04T23:17:34.280Z,6.80
2023-04-04T23:20:20.267Z,7.60
2023-04-04T23:23:06.865Z,7.30
2023-04-04T23:25:54.331Z,7.30
2023-04-04T23:28:40.410Z,7.70
2023-04-04T23:31:26.700Z,7.70
2023-04-04T23:34:12.576Z,7.70
2023-04-04T23:36:59.010Z,7.50
2023-04-04T23:39:45.329Z,7.60
2023-04-04T23:42:31.034Z,7.60
2023-04-04T23:45:17.203Z,7.20
2023-04-04T23:48:03.169Z,6.60
2023-04-04T23:50:50.299Z,6.40
2023-04-04T23:53:36.192Z,7.40
2023-04-04T23:56:22.797Z,6.40
2023-04-04T23:59:09.892Z,7.40
